• Join FlightAware (Why Join?)
  • Login
  • US Flag 
03:13PM EDT


 

Airport Tracker/Info


-or-


 

Live Flight TrackerFlight Track Log ✈ EJA829P ✈ 07-Jul-2013 ✈ KDZB - KHEZ

Flight Track Log - Related Links

Times and Time Zones

All times are in EDT time to prevent confusion due to time zone crossing. See the EJA829P flight status page for this flight to view local times or setup timezone preferences in your user account.

Time Position Orientation Groundspeed Altitude Reporting Facility
EDT Latitude Longitude Course Direction KTS MPH feet Rate Location/Type
12:08PM 30.5264 -98.4039 255° West 241 277 8,400  Level Houston Center
12:09PM 30.5100 -98.4764 255° West 252 290 9,500 -840 Climbing Houston Center
12:11PM 30.5344 -98.3427 77° East  Level Estimated
12:14PM 30.4864 -98.3358 77° East 305 351 4,000  Level Houston Center
12:15PM 30.5025 -98.2561 77° East 261 300 5,000 480 Climbing Houston Center
12:16PM 30.5164 -98.1719 79° East 261 300 5,100 1,320 Climbing Houston Center
12:17PM 30.5339 -98.0906 76° East 261 300 7,800 2,700 Climbing Houston Center
12:18PM 30.6688 -97.5927 83° East  Level Estimated
12:18PM 30.5550 -97.9817 77° East 296 341 10,700  Level Houston Center
12:19PM 30.6876 -97.4854 77° East  Level Estimated
12:19PM 30.5756 -97.8781 77° East 323 372 12,500  Level Houston Center
12:20PM 30.5969 -97.7706 77° East 337 388 15,000 2,400 Climbing Houston Center
12:21PM 30.6161 -97.6703 77° East 323 372 17,500 1,980 Climbing Houston Center
12:22PM 30.6361 -97.5689 77° East 319 367 19,200 1,680 Climbing Houston Center
12:23PM 30.6561 -97.4633 78° East 329 379 21,000 1,740 Climbing Houston Center
12:24PM 30.6814 -97.3367 77° East 342 394 22,900 1,560 Climbing Houston Center
12:25PM 30.6861 -97.2233 87° East 358 412 24,300 1,500 Climbing Houston Center
12:26PM 30.6767 -97.1083 95° East 359 413 26,000 1,380 Climbing Houston Center
12:27PM 30.6642 -96.9933 97° East 357 411 27,200 1,320 Climbing Houston Center
12:28PM 30.6517 -96.8775 97° East 361 415 28,800 1,740 Climbing Houston Center
12:29PM 30.6394 -96.7442 96° East 355 409 30,900 1,020 Climbing Houston Center
12:30PM 30.6275 -96.6264 97° East 365 420 31,000  Climbing Houston Center
12:31PM 30.6133 -96.4989 97° East 392 451 31,000  Level Houston Center
12:32PM 30.6150 -96.3672 89° East 402 463 31,000  Level Houston Center
12:33PM 30.6394 -96.2375 78° East 408 470 31,000  Level Houston Center
12:34PM 30.6628 -96.1061 78° East 411 473 31,000  Level Houston Center
12:35PM 30.6839 -95.9778 79° East 404 465 31,000  Level Houston Center
12:36PM 30.7122 -95.8211 78° East 414 476 31,000  Level Houston Center
12:37PM 30.7353 -95.6925 78° East 408 470 31,000  Level Houston Center
12:38PM 30.7578 -95.5644 78° East 405 466 31,000  Level Houston Center
12:39PM 30.7811 -95.4339 78° East 414 476 31,000  Level Houston Center
12:41PM 30.8044 -95.3064 78° East 405 466 31,000  Level Houston Center
12:42PM 30.8253 -95.1764 79° East 408 470 31,000  Level Houston Center
12:43PM 30.8517 -95.0211 79° East 410 472 31,000  Level Houston Center
12:44PM 30.8750 -94.8919 78° East 412 474 31,000  Level Houston Center
12:45PM 30.8961 -94.7619 79° East 414 476 31,000  Level Houston Center
12:46PM 30.9161 -94.6322 80° East 411 473 31,000  Level Houston Center
12:47PM 30.9436 -94.4742 78° East 417 480 31,000  Level Houston Center
12:48PM 30.9661 -94.3406 79° East 422 486 31,000  Level Houston Center
12:49PM 30.9886 -94.2078 79° East 422 486 31,000  Level Houston Center
12:50PM 31.0103 -94.0767 79° East 418 481 31,000  Level Houston Center
12:51PM 31.0411 -93.9472 74° East 418 481 31,000  Level Houston Center
12:52PM 31.0906 -93.8047 68° East 420 483 31,000  Level Houston Center
12:53PM 31.1311 -93.6778 70° East 418 481 31,000  Level Houston Center
12:54PM 31.1711 -93.5492 70° East 421 484 31,000  Level Houston Center
12:55PM 31.2106 -93.4192 70° East 424 488 31,000  Level Houston Center
12:56PM 31.2514 -93.2917 69° East 422 486 31,000  Level Houston Center
12:57PM 31.2919 -93.1631 70° East 420 483 31,000  Level Houston Center
12:58PM 31.3397 -93.0078 70° East 422 486 31,000  Level Houston Center
12:59PM 31.3811 -92.8789 69° East 423 487 31,000  Level Houston Center
01:00PM 31.4211 -92.7506 70° East 421 484 31,000  Level Houston Center
01:01PM 31.4642 -92.6233 68° East 422 486 31,000 -1,200 Level Houston Center
01:02PM 31.4878 -92.4875 78° East 427 491 28,600 -2,640 Descending Houston Center
01:03PM 31.5014 -92.3528 83° East 417 480 25,500 -3,000 Descending Houston Center
01:04PM 31.5169 -92.2136 82° East 402 463 22,400 -3,000 Descending Houston Center
01:05PM 31.5314 -92.0889 82° East 388 447 19,400 -3,180 Descending Houston Center
01:06PM 31.5475 -91.9439 83° East 375 432 15,900 -3,240 Descending Houston Center
01:07PM 31.5603 -91.8275 83° East 362 417 12,800 -2,880 Descending Houston Center
01:08PM 31.5728 -91.7169 82° East 342 394 10,000 -1,860 Descending Houston Center
01:09PM 31.5833 -91.6214 83° East 299 344 9,000 -1,140 Descending Houston Center
01:11PM 31.5928 -91.5350 83° East 269 310 7,700 -1,260 Descending Houston Center